Time;durP1;ratioP1;P1;durP2;ratioP2;P2;SDS_P1;SDS_P2;PMS_P1;PMS_P2;Temp;Humidity;BMP_temperature;BMP_pressure;BME280_temperature;BME280_humidity;BME280_pressure;Samples;Min_cycle;Max_cycle;Signal;HPM_P1;HPM_P2
2023/05/08 00:01:29;;;;;;;29.50;25.23;;;11.30;99.90;;;;;;4984515;28;20512;-69
2023/05/08 00:03:55;;;;;;;32.53;24.60;;;11.30;99.90;;;;;;4987676;28;20104;-69
2023/05/08 00:06:21;;;;;;;32.35;26.25;;;11.20;99.90;;;;;;4985376;28;20053;-69
2023/05/08 00:08:47;;;;;;;33.50;26.35;;;11.20;99.90;;;;;;4988124;28;20073;-69
2023/05/08 00:11:12;;;;;;;32.40;25.00;;;11.20;99.90;;;;;;4988251;28;20044;-69
2023/05/08 00:13:40;;;;;;;33.40;25.88;;;11.10;99.90;;;;;;4969591;28;20054;-69
2023/05/08 00:16:08;;;;;;;33.83;24.52;;;11.10;99.90;;;;;;4964002;28;20523;-69
2023/05/08 00:18:36;;;;;;;35.05;27.05;;;11.10;99.90;;;;;;4983354;28;20054;-69
2023/05/08 00:21:02;;;;;;;43.15;28.63;;;11.00;99.90;;;;;;4986119;28;20058;-69
2023/05/08 00:23:27;;;;;;;39.95;28.05;;;11.00;99.90;;;;;;4986484;28;20102;-69
2023/05/08 00:25:53;;;;;;;35.35;26.45;;;11.00;99.90;;;;;;4969872;28;20053;-69
2023/05/08 00:28:19;;;;;;;35.05;25.40;;;10.90;99.90;;;;;;4970354;28;20097;-69
2023/05/08 00:30:45;;;;;;;37.47;26.70;;;10.90;99.90;;;;;;4987724;28;20046;-69
2023/05/08 00:33:11;;;;;;;38.83;28.50;;;10.90;99.90;;;;;;4972803;28;20386;-69
2023/05/08 00:35:37;;;;;;;32.75;25.63;;;10.90;99.90;;;;;;4974027;28;20054;-69
2023/05/08 00:38:02;;;;;;;35.95;27.15;;;10.80;99.90;;;;;;4973979;28;20054;-69
2023/05/08 00:40:28;;;;;;;37.92;28.92;;;10.80;99.90;;;;;;4970522;28;20054;-69
2023/05/08 00:42:54;;;;;;;37.35;27.00;;;10.70;99.90;;;;;;4971725;28;20122;-69
2023/05/08 00:45:19;;;;;;;33.75;25.48;;;10.70;99.90;;;;;;4990805;28;20455;-69
2023/05/08 00:47:45;;;;;;;39.28;27.60;;;10.70;99.90;;;;;;4973505;28;20742;-69
2023/05/08 00:50:11;;;;;;;32.65;24.85;;;10.60;99.90;;;;;;4992315;28;20068;-69
2023/05/08 00:52:37;;;;;;;36.42;26.00;;;10.60;99.90;;;;;;4991810;28;20049;-69
2023/05/08 00:55:04;;;;;;;33.00;26.23;;;10.60;99.90;;;;;;4947599;28;20046;-69
2023/05/08 00:57:34;;;;;;;35.33;27.42;;;10.60;99.90;;;;;;4989254;28;20087;-69
2023/05/08 01:00:01;;;;;;;38.45;27.42;;;10.60;99.90;;;;;;4974568;28;20678;-69
2023/05/08 01:02:30;;;;;;;33.08;26.67;;;10.60;99.90;;;;;;4991564;28;20052;-69
2023/05/08 01:04:56;;;;;;;35.97;27.20;;;10.60;99.90;;;;;;4990052;28;20060;-69
2023/05/08 01:07:21;;;;;;;35.15;27.70;;;10.60;99.90;;;;;;4980725;28;20050;-69
2023/05/08 01:09:48;;;;;;;32.30;25.60;;;10.60;99.90;;;;;;4974044;28;20439;-69
2023/05/08 01:12:20;;;;;;;39.67;26.40;;;10.70;99.90;;;;;;4970551;28;20062;-69
2023/05/08 01:15:07;;;;;;;36.38;26.60;;;10.60;99.90;;;;;;4990887;28;20171;-69
2023/05/08 01:17:46;;;;;;;37.40;27.20;;;10.70;99.90;;;;;;4978725;28;20050;-69
2023/05/08 01:20:44;;;;;;;38.38;27.70;;;10.70;99.90;;;;;;4974192;28;20050;-69
2023/05/08 01:23:29;;;;;;;;;;;10.70;99.90;;;;;;4971077;28;20137;-69
2023/05/08 01:26:10;;;;;;;37.25;27.38;;;10.70;99.90;;;;;;4987637;28;20004;-69
2023/05/08 01:29:24;;;;;;;31.67;24.77;;;10.70;99.90;;;;;;4987526;28;20130;-69
2023/05/08 01:32:12;;;;;;;34.90;26.60;;;10.70;99.90;;;;;;4972895;28;20050;-69
2023/05/08 01:35:09;;;;;;;33.05;25.02;;;10.80;99.90;;;;;;4990569;28;20038;-69
2023/05/08 01:37:57;;;;;;;37.03;25.25;;;10.80;99.90;;;;;;4990494;28;20093;-69
2023/05/08 01:41:00;;;;;;;39.13;26.85;;;10.70;99.90;;;;;;4986982;28;20062;-69
2023/05/08 01:43:32;;;;;;;49.28;26.20;;;10.80;99.90;;;;;;4982880;28;20101;-69
2023/05/08 01:46:00;;;;;;;31.70;25.52;;;10.70;99.90;;;;;;4987345;28;20038;-69
2023/05/08 01:48:32;;;;;;;;;;;10.70;99.90;;;;;;4990347;28;20579;-69
2023/05/08 01:51:10;;;;;;;33.83;25.83;;;10.70;99.90;;;;;;4989854;28;19936;-69
2023/05/08 01:53:51;;;;;;;35.47;25.77;;;10.70;99.90;;;;;;4968893;28;20050;-69
2023/05/08 01:56:24;;;;;;;32.28;25.00;;;10.70;99.90;;;;;;4983602;28;20157;-69
2023/05/08 01:58:51;;;;;;;33.53;24.60;;;10.70;99.90;;;;;;4990373;28;20050;-69
2023/05/08 02:01:21;;;;;;;30.70;24.23;;;10.60;99.90;;;;;;4980177;28;20042;-69
2023/05/08 02:03:48;;;;;;;30.60;24.85;;;10.70;99.90;;;;;;4968732;28;20054;-69
2023/05/08 02:06:16;;;;;;;35.88;26.48;;;10.60;99.90;;;;;;4978130;28;20057;-69
2023/05/08 02:08:44;;;;;;;36.88;26.77;;;10.60;99.90;;;;;;4989771;28;20039;-69
2023/05/08 02:11:12;;;;;;;35.95;26.98;;;10.60;99.90;;;;;;4989219;28;20046;-69
2023/05/08 02:13:39;;;;;;;37.00;27.00;;;10.50;99.90;;;;;;4990252;28;20809;-69
2023/05/08 02:16:08;;;;;;;37.17;26.60;;;10.40;99.90;;;;;;4986908;28;20047;-69
2023/05/08 02:18:36;;;;;;;34.80;27.20;;;10.40;99.90;;;;;;4989689;28;20061;-68
2023/05/08 02:21:04;;;;;;;37.22;27.10;;;10.40;99.90;;;;;;4989594;28;20058;-69
2023/05/08 02:23:33;;;;;;;33.90;26.98;;;10.30;99.90;;;;;;4972465;28;20046;-69
2023/05/08 02:26:01;;;;;;;34.00;26.00;;;10.30;99.90;;;;;;4990393;28;20046;-69
2023/05/08 02:28:29;;;;;;;30.85;23.33;;;10.20;99.90;;;;;;4960342;28;20449;-69
2023/05/08 02:30:57;;;;;;;37.47;27.13;;;10.20;99.90;;;;;;4989136;28;20034;-69
2023/05/08 02:33:23;;;;;;;35.55;26.23;;;10.20;99.90;;;;;;4962560;28;20053;-69
2023/05/08 02:35:50;;;;;;;36.40;28.42;;;10.10;99.90;;;;;;4967402;28;20054;-69
2023/05/08 02:38:19;;;;;;;34.17;26.40;;;10.10;99.90;;;;;;4971645;28;20054;-69
2023/05/08 02:40:48;;;;;;;36.78;26.42;;;10.00;99.90;;;;;;4990082;28;20089;-69
2023/05/08 02:43:14;;;;;;;34.80;25.90;;;10.00;99.90;;;;;;4989839;28;20043;-68
2023/05/08 02:45:51;;;;;;;33.78;26.48;;;9.90;99.90;;;;;;4967747;28;20042;-68
2023/05/08 02:48:29;;;;;;;32.05;25.77;;;9.90;99.90;;;;;;4989272;28;20514;-69
2023/05/08 02:51:24;;;;;;;34.85;25.55;;;9.80;99.90;;;;;;4988462;28;20460;-69
2023/05/08 02:53:55;;;;;;;34.47;25.58;;;9.80;99.90;;;;;;4970083;28;20054;-68
2023/05/08 02:56:54;;;;;;;33.70;26.50;;;9.70;99.90;;;;;;4971357;28;20046;-69
2023/05/08 02:59:44;;;;;;;42.72;26.60;;;9.70;99.90;;;;;;4980006;28;20063;-69
2023/05/08 03:02:14;;;;;;;34.00;26.65;;;9.60;99.90;;;;;;4969400;28;20502;-69
2023/05/08 03:05:02;;;;;;;32.00;26.08;;;9.50;99.90;;;;;;4988835;28;20046;-69
2023/05/08 03:07:28;;;;;;;38.85;27.27;;;9.40;99.90;;;;;;4989577;28;20503;-69
2023/05/08 03:10:00;;;;;;;36.05;25.50;;;9.40;99.90;;;;;;4989417;28;20058;-68
2023/05/08 03:12:29;;;;;;;29.33;25.35;;;9.40;99.90;;;;;;4971281;28;20066;-69
2023/05/08 03:15:10;;;;;;;31.95;24.13;;;9.30;99.90;;;;;;4988058;28;20054;-68
2023/05/08 03:17:38;;;;;;;33.95;26.77;;;9.30;99.90;;;;;;4986378;28;20500;-68
2023/05/08 03:20:07;;;;;;;38.30;26.97;;;9.30;99.90;;;;;;4971817;28;20050;-68
2023/05/08 03:22:36;;;;;;;39.25;25.23;;;9.30;99.90;;;;;;4988229;28;20045;-68
2023/05/08 03:25:05;;;;;;;33.85;24.08;;;9.30;99.90;;;;;;4987952;28;20105;-68
2023/05/08 03:27:31;;;;;;;37.05;26.77;;;9.30;99.90;;;;;;4988249;28;20455;-68
2023/05/08 03:30:00;;;;;;;30.58;24.38;;;9.30;99.90;;;;;;4988337;28;20053;-68
2023/05/08 03:32:27;;;;;;;33.53;27.20;;;9.30;99.90;;;;;;4988777;28;20549;-68
2023/05/08 03:34:57;;;;;;;37.67;27.02;;;9.30;99.90;;;;;;4986384;28;20074;-69
2023/05/08 03:37:23;;;;;;;32.75;24.27;;;9.20;99.90;;;;;;4988687;28;20057;-68
2023/05/08 03:39:50;;;;;;;35.03;24.73;;;9.00;99.90;;;;;;4971277;28;20572;-69
2023/05/08 03:42:20;;;;;;;35.85;27.10;;;8.90;99.90;;;;;;4989007;28;20069;-69
2023/05/08 03:44:52;;;;;;;35.00;24.50;;;8.80;99.90;;;;;;4990190;28;20050;-69
2023/05/08 03:47:19;;;;;;;36.45;26.35;;;8.70;99.90;;;;;;4996157;28;20047;-68
2023/05/08 03:49:47;;;;;;;36.10;26.90;;;8.70;99.90;;;;;;4987409;28;20419;-69
2023/05/08 03:52:14;;;;;;;36.97;28.70;;;8.70;99.90;;;;;;4981622;28;20054;-69
2023/05/08 03:54:40;;;;;;;36.42;27.35;;;8.70;99.90;;;;;;4986058;28;20286;-68
2023/05/08 03:57:06;;;;;;;38.33;27.45;;;8.60;99.90;;;;;;4988042;28;20057;-68
2023/05/08 04:00:04;;;;;;;34.47;26.25;;;8.70;99.90;;;;;;4970922;28;20042;-69
2023/05/08 04:03:04;;;;;;;39.10;27.58;;;8.70;99.90;;;;;;4948291;28;20050;-69
2023/05/08 04:06:01;;;;;;;38.38;27.55;;;8.80;99.90;;;;;;4985622;28;20034;-68
2023/05/08 04:08:38;;;;;;;34.22;26.42;;;8.70;99.90;;;;;;4983405;28;20042;-69
2023/05/08 04:11:16;;;;;;;34.45;25.42;;;8.70;99.90;;;;;;4984507;28;20079;-69
2023/05/08 04:13:45;;;;;;;;;;;8.70;99.90;;;;;;4987976;28;20077;-68
2023/05/08 04:16:21;;;;;;;38.63;26.63;;;8.60;99.90;;;;;;4989026;28;20371;-69
2023/05/08 04:18:49;;;;;;;35.78;26.58;;;8.60;99.90;;;;;;4989020;28;20057;-68
2023/05/08 04:21:21;;;;;;;37.30;26.83;;;8.60;99.90;;;;;;4982556;28;20049;-69
2023/05/08 04:23:50;;;;;;;34.35;25.38;;;8.60;99.90;;;;;;4988601;28;20042;-69
2023/05/08 04:26:17;;;;;;;37.58;27.65;;;8.60;99.90;;;;;;4987660;28;20054;-68
2023/05/08 04:28:45;;;;;;;31.30;25.77;;;8.70;99.90;;;;;;4968877;28;20050;-68
2023/05/08 04:31:15;;;;;;;34.83;27.40;;;8.70;99.90;;;;;;4987033;28;20834;-68
2023/05/08 04:33:43;;;;;;;41.95;29.17;;;8.70;99.90;;;;;;4986910;28;20061;-69
2023/05/08 04:36:13;;;;;;;41.38;29.92;;;8.70;99.90;;;;;;4988627;28;20079;-69
2023/05/08 04:38:42;;;;;;;41.35;28.55;;;8.80;99.90;;;;;;4988752;28;20085;-68
2023/05/08 04:41:08;;;;;;;35.67;28.27;;;8.90;99.90;;;;;;4988420;28;20065;-68
2023/05/08 04:43:34;;;;;;;34.45;26.80;;;9.20;99.90;;;;;;4970067;28;20507;-69
2023/05/08 04:46:00;;;;;;;36.67;27.75;;;9.50;99.90;;;;;;4986495;28;20058;-69
2023/05/08 04:48:26;;;;;;;34.25;26.40;;;9.50;99.90;;;;;;4964528;28;20500;-68
2023/05/08 04:50:51;;;;;;;39.22;27.70;;;9.40;99.90;;;;;;4987821;28;20154;-68
2023/05/08 04:53:17;;;;;;;35.95;27.42;;;9.40;99.90;;;;;;4988182;28;20046;-68
2023/05/08 04:55:43;;;;;;;33.20;27.35;;;9.40;99.90;;;;;;4970313;28;20038;-68
2023/05/08 04:58:12;;;;;;;33.47;26.83;;;9.50;99.90;;;;;;4987851;28;20090;-68
2023/05/08 05:00:37;;;;;;;35.97;26.13;;;9.40;99.90;;;;;;4987851;28;20129;-68
2023/05/08 05:03:03;;;;;;;34.17;25.38;;;9.40;99.90;;;;;;4971025;28;20097;-68
2023/05/08 05:05:30;;;;;;;31.98;25.85;;;9.40;99.90;;;;;;4984677;28;20121;-69
2023/05/08 05:07:55;;;;;;;32.65;27.10;;;9.50;99.90;;;;;;4987995;28;20133;-69
2023/05/08 05:10:21;;;;;;;38.08;28.48;;;9.60;99.90;;;;;;4987138;28;20046;-68
2023/05/08 05:12:48;;;;;;;36.05;27.17;;;9.80;99.90;;;;;;4987350;28;20046;-69
2023/05/08 05:15:13;;;;;;;33.17;26.05;;;10.00;99.90;;;;;;4987250;28;20839;-69
2023/05/08 05:17:39;;;;;;;31.23;26.33;;;10.10;99.90;;;;;;4973606;28;20050;-69
2023/05/08 05:20:07;;;;;;;31.98;25.60;;;10.40;99.90;;;;;;4985130;28;20467;-69
2023/05/08 05:22:33;;;;;;;32.25;24.75;;;10.90;99.90;;;;;;4972162;28;20057;-69
2023/05/08 05:24:58;;;;;;;32.72;25.10;;;11.10;99.90;;;;;;4973008;28;20089;-69
2023/05/08 05:27:24;;;;;;;34.75;23.83;;;11.30;99.90;;;;;;4990769;28;20050;-69
2023/05/08 05:29:50;;;;;;;30.98;26.17;;;11.40;99.90;;;;;;4990978;28;20117;-69
2023/05/08 05:32:16;;;;;;;28.58;23.08;;;11.40;99.90;;;;;;4972602;28;20506;-69
2023/05/08 05:34:41;;;;;;;28.58;23.58;;;11.30;99.90;;;;;;4990394;28;20064;-69
2023/05/08 05:37:07;;;;;;;28.67;23.60;;;11.30;99.90;;;;;;4987045;28;20500;-69
2023/05/08 05:39:32;;;;;;;33.95;24.63;;;11.20;99.90;;;;;;4991421;28;20134;-69
2023/05/08 05:41:58;;;;;;;30.33;23.98;;;11.30;99.90;;;;;;4985288;28;20058;-69
2023/05/08 05:44:24;;;;;;;32.67;24.98;;;11.30;99.90;;;;;;4989699;28;20868;-69
2023/05/08 05:46:49;;;;;;;27.35;23.90;;;11.30;99.90;;;;;;4988082;28;20050;-69
2023/05/08 05:49:15;;;;;;;28.83;23.05;;;11.40;99.90;;;;;;4987836;28;20140;-69
2023/05/08 05:51:41;;;;;;;29.77;22.65;;;11.60;99.90;;;;;;4989199;28;20070;-69
2023/05/08 05:54:06;;;;;;;30.63;25.17;;;11.70;99.90;;;;;;4987917;28;20046;-69
2023/05/08 05:56:32;;;;;;;28.55;23.95;;;11.70;99.90;;;;;;4989193;28;20542;-69
2023/05/08 05:58:58;;;;;;;29.15;23.15;;;11.80;99.90;;;;;;4988842;28;20833;-69
2023/05/08 06:01:23;;;;;;;28.15;22.05;;;11.70;99.90;;;;;;4988312;28;20053;-69
2023/05/08 06:03:50;;;;;;;27.33;21.75;;;11.70;99.90;;;;;;4971452;28;20377;-69
2023/05/08 06:06:16;;;;;;;27.00;22.08;;;11.60;99.90;;;;;;4989088;28;20046;-69
2023/05/08 06:08:43;;;;;;;26.35;22.08;;;11.60;99.90;;;;;;4987784;28;20042;-69
2023/05/08 06:11:08;;;;;;;24.30;21.55;;;11.50;99.90;;;;;;4988872;28;20073;-69
2023/05/08 06:13:34;;;;;;;25.02;20.98;;;11.60;99.90;;;;;;4986033;28;20084;-69
2023/05/08 06:16:00;;;;;;;30.52;24.13;;;11.60;99.90;;;;;;4989735;28;20538;-69
2023/05/08 06:18:25;;;;;;;24.20;21.00;;;11.70;99.90;;;;;;4972761;28;20050;-69
2023/05/08 06:20:57;;;;;;;27.73;22.75;;;11.70;99.90;;;;;;4988182;28;20057;-69
2023/05/08 06:23:25;;;;;;;26.63;22.08;;;11.70;99.90;;;;;;4971865;28;20082;-69
2023/05/08 06:25:52;;;;;;;27.83;21.10;;;11.70;99.90;;;;;;4977189;28;20049;-69
2023/05/08 06:28:17;;;;;;;32.50;23.35;;;11.70;99.90;;;;;;4976132;28;20052;-69
2023/05/08 06:30:43;;;;;;;31.58;24.77;;;11.70;99.90;;;;;;4970131;28;20034;-69
2023/05/08 06:33:10;;;;;;;30.50;23.95;;;11.70;99.90;;;;;;4989325;28;20089;-69
2023/05/08 06:35:36;;;;;;;26.42;23.40;;;11.70;99.90;;;;;;4973708;28;20042;-69
2023/05/08 06:38:02;;;;;;;30.42;24.42;;;11.60;99.90;;;;;;4988757;28;20062;-69
2023/05/08 06:40:27;;;;;;;26.65;22.58;;;11.60;99.90;;;;;;4968974;28;20054;-69
2023/05/08 06:42:53;;;;;;;33.60;22.92;;;11.60;99.90;;;;;;4989085;28;20038;-69
2023/05/08 06:45:19;;;;;;;27.88;23.02;;;11.60;99.90;;;;;;4983463;28;20045;-69
2023/05/08 06:47:44;;;;;;;27.35;22.05;;;11.60;99.90;;;;;;4992286;28;20474;-69
2023/05/08 06:50:10;;;;;;;31.95;23.98;;;11.70;99.90;;;;;;4971544;28;20543;-69
2023/05/08 06:52:36;;;;;;;31.63;26.08;;;11.70;99.90;;;;;;4989205;28;20416;-69
2023/05/08 06:55:01;;;;;;;28.27;23.58;;;11.70;99.90;;;;;;4985223;28;20050;-69
2023/05/08 06:57:29;;;;;;;30.02;23.45;;;11.80;99.90;;;;;;4971523;28;20141;-69
2023/05/08 06:59:55;;;;;;;25.38;22.33;;;11.90;99.90;;;;;;4971247;28;20084;-69
2023/05/08 07:02:20;;;;;;;31.30;24.02;;;11.90;99.90;;;;;;4986414;28;20046;-69
2023/05/08 07:04:46;;;;;;;35.80;24.30;;;12.00;99.90;;;;;;4971026;28;20045;-69
2023/05/08 07:07:14;;;;;;;28.73;24.50;;;12.10;99.90;;;;;;4988554;28;20116;-69
2023/05/08 07:09:40;;;;;;;29.48;24.17;;;12.20;99.90;;;;;;4971723;28;20640;-69
2023/05/08 07:12:05;;;;;;;30.02;23.67;;;12.30;99.90;;;;;;4988540;28;20706;-69
2023/05/08 07:14:31;;;;;;;29.67;24.20;;;12.40;99.90;;;;;;4970766;28;20042;-69
2023/05/08 07:17:05;;;;;;;26.05;22.58;;;12.50;99.90;;;;;;4970890;28;20064;-69
2023/05/08 07:19:31;;;;;;;29.65;23.90;;;12.50;99.90;;;;;;4970670;28;20042;-69
2023/05/08 07:21:59;;;;;;;28.92;23.88;;;12.60;99.90;;;;;;4985032;28;20059;-69
2023/05/08 07:24:25;;;;;;;32.35;25.45;;;12.70;99.90;;;;;;4986013;28;20066;-69
2023/05/08 07:26:50;;;;;;;30.20;23.38;;;12.80;99.90;;;;;;4988978;28;20495;-69
2023/05/08 07:29:16;;;;;;;30.70;23.02;;;12.90;99.90;;;;;;4984622;28;20053;-69
2023/05/08 07:31:42;;;;;;;29.08;23.88;;;12.90;99.90;;;;;;4985181;28;20715;-69
2023/05/08 07:34:07;;;;;;;27.80;22.98;;;13.10;99.90;;;;;;4989607;28;20042;-69
2023/05/08 07:36:33;;;;;;;33.75;26.00;;;13.20;99.90;;;;;;4971157;28;20054;-69
2023/05/08 07:38:58;;;;;;;28.40;23.83;;;13.30;99.90;;;;;;4954439;28;20142;-71
2023/05/08 07:41:25;;;;;;;34.80;25.58;;;13.40;99.90;;;;;;4969318;28;20057;-70
2023/05/08 07:43:51;;;;;;;28.75;23.92;;;13.60;99.90;;;;;;4988323;28;20161;-71
2023/05/08 07:46:17;;;;;;;28.55;24.42;;;13.70;99.90;;;;;;4971596;28;20137;-71
2023/05/08 07:48:43;;;;;;;29.50;24.23;;;13.80;99.90;;;;;;4971063;28;20518;-71
2023/05/08 07:51:10;;;;;;;31.55;23.60;;;13.90;99.90;;;;;;4969759;28;20053;-72
2023/05/08 07:53:35;;;;;;;29.90;24.17;;;14.10;99.90;;;;;;4970854;28;20054;-71
2023/05/08 07:56:01;;;;;;;26.10;21.73;;;14.40;99.90;;;;;;4970745;28;20085;-71
2023/05/08 07:58:27;;;;;;;38.88;21.33;;;14.70;99.90;;;;;;4974221;28;20057;-71
2023/05/08 08:00:53;;;;;;;28.85;22.25;;;15.00;99.90;;;;;;4974139;28;20060;-71
2023/05/08 08:03:18;;;;;;;28.30;22.55;;;15.30;99.90;;;;;;4970165;28;20046;-71
2023/05/08 08:05:44;;;;;;;27.90;22.02;;;15.50;99.90;;;;;;4970208;28;20069;-71
2023/05/08 08:08:10;;;;;;;25.15;22.42;;;15.80;99.90;;;;;;4970017;28;20719;-71
2023/05/08 08:10:36;;;;;;;25.45;20.88;;;16.00;99.90;;;;;;4970351;28;20110;-70
2023/05/08 08:13:01;;;;;;;23.83;21.02;;;16.20;99.90;;;;;;4980616;28;20054;-72
2023/05/08 08:15:27;;;;;;;30.08;23.10;;;16.40;99.90;;;;;;4970783;28;20475;-71
2023/05/08 08:17:53;;;;;;;27.95;22.10;;;16.60;99.90;;;;;;4969280;28;20065;-72
2023/05/08 08:20:19;;;;;;;23.77;21.25;;;16.80;99.90;;;;;;4969929;28;20177;-72
2023/05/08 08:22:46;;;;;;;27.00;22.52;;;16.80;99.90;;;;;;4969166;28;20165;-71
2023/05/08 08:25:12;;;;;;;23.42;20.73;;;17.00;99.90;;;;;;4969832;28;20081;-71
2023/05/08 08:27:37;;;;;;;37.33;26.23;;;17.20;99.90;;;;;;4970469;28;20093;-72
2023/05/08 08:30:04;;;;;;;24.67;21.42;;;17.30;99.90;;;;;;4950219;28;20055;-72
2023/05/08 08:32:29;;;;;;;88.40;24.55;;;17.40;99.90;;;;;;4966306;28;20047;-71
2023/05/08 08:34:56;;;;;;;44.15;24.13;;;17.60;99.90;;;;;;4961709;28;20407;-72
2023/05/08 08:37:23;;;;;;;58.03;26.75;;;17.70;99.90;;;;;;4970239;28;20887;-72
2023/05/08 08:39:48;;;;;;;28.25;22.25;;;17.80;99.90;;;;;;4969618;28;20126;-71
2023/05/08 08:42:14;;;;;;;27.63;22.75;;;17.90;99.90;;;;;;4956768;28;20487;-71
2023/05/08 08:44:40;;;;;;;41.97;24.83;;;18.10;99.90;;;;;;4969585;28;20567;-71
2023/05/08 08:47:10;;;;;;;42.60;24.70;;;18.40;99.90;;;;;;4968429;28;20532;-72
2023/05/08 08:49:42;;;;;;;40.53;30.17;;;18.50;99.90;;;;;;4971413;28;20163;-72
2023/05/08 08:52:40;;;;;;;61.75;26.83;;;18.50;99.90;;;;;;4953475;28;20128;-72
2023/05/08 08:55:08;;;;;;;41.72;22.15;;;18.40;99.90;;;;;;4964000;28;20050;-72
2023/05/08 08:57:38;;;;;;;25.67;22.42;;;18.60;99.90;;;;;;4973824;28;20058;-71
2023/05/08 09:00:10;;;;;;;27.90;23.90;;;18.70;99.90;;;;;;4973587;28;20392;-72
2023/05/08 09:02:36;;;;;;;65.43;59.55;;;18.80;99.90;;;;;;4973881;28;20132;-72
2023/05/08 09:05:02;;;;;;;61.58;56.35;;;18.80;99.90;;;;;;4972876;28;20166;-72
2023/05/08 09:07:29;;;;;;;43.60;31.92;;;18.80;99.90;;;;;;4973139;28;20053;-72
2023/05/08 09:09:55;;;;;;;42.58;34.25;;;18.80;99.90;;;;;;4975238;28;20091;-72
2023/05/08 09:12:20;;;;;;;47.72;37.10;;;18.80;99.90;;;;;;4973452;28;20049;-71
2023/05/08 09:14:46;;;;;;;5.88;4.97;;;18.90;99.90;;;;;;4973209;28;20062;-72
2023/05/08 09:17:13;;;;;;;2.28;2.08;;;19.00;99.90;;;;;;4957892;28;20058;-72
2023/05/08 09:19:39;;;;;;;3.67;3.33;;;19.00;99.90;;;;;;4977134;28;20053;-72
2023/05/08 09:22:08;;;;;;;2.42;2.17;;;19.00;99.90;;;;;;4973042;28;20050;-72
2023/05/08 09:24:59;;;;;;;2.10;1.95;;;19.10;99.90;;;;;;4984186;28;20113;-71
2023/05/08 09:27:29;;;;;;;1.60;1.50;;;19.30;99.90;;;;;;4989760;28;20049;-72
2023/05/08 09:30:05;;;;;;;3.17;2.88;;;19.50;99.90;;;;;;4973063;28;20527;-71
2023/05/08 09:32:32;;;;;;;4.25;2.85;;;19.60;99.90;;;;;;4970186;28;20057;-72
2023/05/08 09:34:58;;;;;;;2.80;2.60;;;19.50;99.90;;;;;;4970699;28;20046;-74
2023/05/08 09:37:25;;;;;;;4.57;3.90;;;19.40;99.90;;;;;;4993172;28;20492;-72
2023/05/08 09:39:50;;;;;;;3.67;3.38;;;19.50;99.90;;;;;;4975595;28;20030;-73
2023/05/08 09:42:16;;;;;;;4.15;3.63;;;19.30;99.90;;;;;;4991690;28;20039;-72
2023/05/08 09:44:44;;;;;;;5.80;4.47;;;19.10;99.90;;;;;;4991125;28;20043;-72
2023/05/08 09:47:12;;;;;;;4.03;3.00;;;19.00;99.90;;;;;;4990808;28;20196;-71
2023/05/08 09:49:40;;;;;;;;;;;19.20;99.90;;;;;;4985825;28;20047;-72
2023/05/08 09:52:07;;;;;;;5.80;4.97;;;19.40;99.90;;;;;;4993668;28;19929;-73
2023/05/08 09:54:33;;;;;;;4.10;3.83;;;19.40;99.90;;;;;;4990819;28;20054;-72
2023/05/08 09:56:58;;;;;;;5.18;4.43;;;19.30;99.90;;;;;;4990169;28;20086;-72
2023/05/08 09:59:26;;;;;;;5.93;4.68;;;19.40;99.90;;;;;;4972262;28;20090;-73
2023/05/08 10:01:52;;;;;;;2.63;2.42;;;19.50;99.90;;;;;;4989989;28;20108;-72
2023/05/08 10:04:34;;;;;;;3.10;2.80;;;19.70;99.90;;;;;;4969010;28;20051;-72
2023/05/08 10:07:01;;;;;;;2.83;2.55;;;19.90;99.90;;;;;;4985890;28;20110;-72
2023/05/08 10:09:26;;;;;;;1.98;1.75;;;20.20;99.90;;;;;;4969402;28;20047;-72
2023/05/08 10:11:54;;;;;;;1.85;1.60;;;20.40;99.90;;;;;;4987739;28;20053;-72
2023/05/08 10:14:21;;;;;;;3.35;3.08;;;20.30;99.90;;;;;;4971654;28;20050;-72
2023/05/08 10:16:48;;;;;;;3.08;1.98;;;20.30;99.90;;;;;;4979794;28;20109;-72
2023/05/08 10:19:27;;;;;;;4.70;4.30;;;20.40;99.90;;;;;;4970999;28;20057;-73
2023/05/08 10:21:55;;;;;;;4.40;4.07;;;20.20;99.90;;;;;;4972017;28;20289;-73
2023/05/08 10:24:30;;;;;;;;;;;20.10;99.90;;;;;;5000152;28;20042;-72
2023/05/08 10:27:04;;;;;;;4.32;4.03;;;20.20;99.90;;;;;;4986714;28;19928;-73
2023/05/08 10:29:55;;;;;;;4.60;3.25;;;20.20;99.90;;;;;;4972172;28;20054;-73
2023/05/08 10:32:23;;;;;;;3.33;3.03;;;20.40;99.90;;;;;;4974265;28;20516;-71
2023/05/08 10:34:52;;;;;;;2.78;2.55;;;20.60;99.90;;;;;;4985337;28;20038;-71
2023/05/08 10:37:19;;;;;;;3.03;2.83;;;20.80;97.10;;;;;;4988307;28;20030;-71
2023/05/08 10:39:46;;;;;;;2.88;2.67;;;21.00;99.90;;;;;;4972178;28;20516;-71
2023/05/08 10:42:13;;;;;;;1.52;1.52;;;21.40;99.90;;;;;;4989514;28;20516;-71
2023/05/08 10:44:39;;;;;;;0.95;0.93;;;21.70;99.90;;;;;;4971128;28;20517;-71
2023/05/08 10:47:35;;;;;;;1.77;1.67;;;22.10;99.60;;;;;;4989068;28;20070;-71
2023/05/08 10:50:16;;;;;;;3.55;2.97;;;22.20;94.90;;;;;;4989342;28;20081;-71
2023/05/08 10:52:51;;;;;;;3.25;3.03;;;21.70;92.60;;;;;;4961327;28;20452;-72
2023/05/08 10:55:31;;;;;;;3.80;3.50;;;21.50;95.70;;;;;;4989418;28;20510;-72
2023/05/08 10:58:05;;;;;;;2.22;2.03;;;21.40;94.50;;;;;;4966220;28;20656;-71
2023/05/08 11:00:52;;;;;;;3.10;2.90;;;21.60;97.50;;;;;;4974094;28;20042;-71
2023/05/08 11:03:26;;;;;;;2.25;2.15;;;21.90;96.40;;;;;;4956014;28;20508;-72
2023/05/08 11:05:53;;;;;;;4.63;3.38;;;22.20;95.10;;;;;;4971030;28;20395;-71
2023/05/08 11:08:23;;;;;;;3.65;3.35;;;22.30;95.70;;;;;;4972153;28;20038;-72
2023/05/08 11:11:04;;;;;;;2.80;2.55;;;22.20;93.40;;;;;;4990314;28;20369;-72
2023/05/08 11:13:35;;;;;;;1.98;1.83;;;22.20;91.10;;;;;;4988497;28;20105;-72
2023/05/08 11:16:01;;;;;;;1.13;1.10;;;22.20;92.90;;;;;;4987272;28;20530;-72
2023/05/08 11:18:28;;;;;;;2.83;2.00;;;22.30;94.30;;;;;;4984147;28;20042;-72
2023/05/08 11:21:05;;;;;;;1.50;1.50;;;22.40;92.90;;;;;;4958749;28;20496;-72
2023/05/08 11:23:37;;;;;;;1.02;1.02;;;22.50;91.60;;;;;;4983835;28;20056;-72
2023/05/08 11:26:11;;;;;;;1.40;1.30;;;22.50;92.00;;;;;;4966562;28;20047;-72
2023/05/08 11:28:55;;;;;;;1.58;1.48;;;22.60;94.20;;;;;;4989789;28;20046;-72
2023/05/08 11:31:21;;;;;;;3.05;2.38;;;22.70;90.90;;;;;;4963444;28;20071;-72
2023/05/08 11:33:47;;;;;;;1.85;1.52;;;22.80;92.50;;;;;;4987664;28;20030;-72
2023/05/08 11:36:24;;;;;;;2.75;2.65;;;22.80;90.60;;;;;;4989227;28;20061;-72
2023/05/08 11:39:14;;;;;;;2.03;1.93;;;22.70;91.80;;;;;;4989307;28;20057;-72
2023/05/08 11:41:40;;;;;;;1.77;1.67;;;22.70;90.40;;;;;;4989326;28;20411;-72
2023/05/08 11:44:08;;;;;;;2.28;1.77;;;23.00;91.40;;;;;;4989070;28;20057;-72
2023/05/08 11:46:36;;;;;;;2.30;2.20;;;23.20;91.40;;;;;;4989269;28;20058;-72
2023/05/08 11:49:02;;;;;;;1.75;1.65;;;23.20;90.80;;;;;;4965962;28;20401;-72
2023/05/08 11:51:32;;;;;;;2.78;2.50;;;23.00;87.50;;;;;;4987522;28;20061;-72
2023/05/08 11:53:59;;;;;;;4.85;3.38;;;22.80;89.20;;;;;;4971081;28;20057;-72
2023/05/08 11:56:25;;;;;;;3.30;2.40;;;22.70;90.00;;;;;;4989795;28;20125;-72
2023/05/08 11:59:05;;;;;;;2.05;1.95;;;22.80;89.10;;;;;;4983937;28;20313;-72
2023/05/08 12:01:31;;;;;;;1.90;1.80;;;22.80;88.40;;;;;;4970217;28;20490;-72
2023/05/08 12:04:15;;;;;;;3.37;3.07;;;22.80;87.90;;;;;;4983987;28;20042;-72
2023/05/08 12:06:41;;;;;;;2.50;2.38;;;22.80;90.50;;;;;;4972080;28;20344;-72
2023/05/08 12:09:17;;;;;;;2.50;2.30;;;22.70;90.90;;;;;;4981353;28;20535;-72
2023/05/08 12:11:44;;;;;;;1.52;1.42;;;22.90;90.00;;;;;;4964443;28;20144;-72
2023/05/08 12:14:16;;;;;;;1.98;1.83;;;23.20;90.40;;;;;;4970437;28;20380;-72
2023/05/08 12:16:42;;;;;;;2.05;1.85;;;23.50;90.60;;;;;;4987016;28;20512;-71
2023/05/08 12:19:10;;;;;;;1.38;1.27;;;23.80;88.70;;;;;;4988114;28;20046;-71
2023/05/08 12:21:35;;;;;;;0.70;0.70;;;23.80;91.00;;;;;;4963325;28;20503;-71
2023/05/08 12:24:10;;;;;;;0.90;0.90;;;23.90;91.00;;;;;;4968052;28;20042;-72
2023/05/08 12:26:37;;;;;;;0.63;0.63;;;24.20;88.80;;;;;;4966541;28;20058;-71
2023/05/08 12:29:07;;;;;;;9.55;0.88;;;24.20;85.10;;;;;;4968444;28;20054;-71
2023/05/08 12:31:36;;;;;;;1.35;1.25;;;24.30;85.40;;;;;;4978880;28;20051;-72
2023/05/08 12:34:03;;;;;;;0.47;0.47;;;24.20;83.60;;;;;;4978266;28;20056;-72
2023/05/08 12:36:34;;;;;;;0.60;0.60;;;24.20;86.30;;;;;;4982199;28;20092;-72
2023/05/08 12:39:14;;;;;;;1.23;1.23;;;24.20;86.70;;;;;;4983773;28;20788;-72
2023/05/08 12:41:51;;;;;;;1.48;1.45;;;24.10;83.20;;;;;;4983682;28;20042;-72
2023/05/08 12:44:23;;;;;;;1.35;1.35;;;23.80;86.30;;;;;;4985343;28;20057;-71
2023/05/08 12:46:50;;;;;;;4.13;2.47;;;23.70;86.90;;;;;;4978720;28;20081;-71
2023/05/08 12:49:30;;;;;;;2.38;1.70;;;23.90;87.90;;;;;;4977624;28;20042;-71